Time;durP1;ratioP1;P1;durP2;ratioP2;P2;SDS_P1;SDS_P2;PMS_P1;PMS_P2;Temp;Humidity;BMP_temperature;BMP_pressure;BME280_temperature;BME280_humidity;BME280_pressure;Samples;Min_cycle;Max_cycle;Signal;HPM_P1;HPM_P2
2024/04/12 00:01:42;;;;;;;1.03;1.03;;;18.40;99.90;;;;;;5516289;26;20509;-74
2024/04/12 00:04:09;;;;;;;0.77;0.77;;;18.40;99.90;;;;;;5516608;25;20575;-75
2024/04/12 00:06:37;;;;;;;0.80;0.80;;;18.30;99.90;;;;;;5515974;25;20514;-75
2024/04/12 00:09:09;;;;;;;0.80;0.80;;;18.30;99.90;;;;;;5516082;25;20466;-75
2024/04/12 00:11:38;;;;;;;0.50;0.43;;;18.40;99.90;;;;;;5514103;26;20520;-75
2024/04/12 00:14:05;;;;;;;1.13;1.03;;;18.30;99.90;;;;;;5516351;25;20458;-75
2024/04/12 00:16:31;;;;;;;0.70;0.70;;;18.30;99.90;;;;;;5514457;26;20517;-74
2024/04/12 00:19:12;;;;;;;0.80;0.80;;;18.30;99.90;;;;;;5514619;26;20469;-75
2024/04/12 00:21:41;;;;;;;0.30;0.30;;;18.20;99.90;;;;;;5513916;26;21386;-74
2024/04/12 00:24:11;;;;;;;1.33;1.30;;;18.20;99.90;;;;;;5516714;26;20951;-75
2024/04/12 00:26:43;;;;;;;0.40;0.40;;;18.20;99.90;;;;;;5515732;25;20499;-75
2024/04/12 00:29:31;;;;;;;2.30;1.80;;;18.20;99.90;;;;;;5516854;25;20515;-75
2024/04/12 00:32:03;;;;;;;0.73;0.40;;;18.20;99.90;;;;;;5514117;26;21155;-75
2024/04/12 00:34:37;;;;;;;0.90;0.90;;;18.10;99.90;;;;;;5516457;25;20506;-75
2024/04/12 00:37:07;;;;;;;0.87;0.87;;;18.20;99.90;;;;;;5515617;25;20448;-74
2024/04/12 00:39:36;;;;;;;3.23;1.70;;;18.10;99.90;;;;;;5513975;26;20536;-75
2024/04/12 00:42:07;;;;;;;0.83;0.83;;;18.10;99.90;;;;;;5515284;25;20559;-75
2024/04/12 00:44:33;;;;;;;0.60;0.60;;;18.00;99.90;;;;;;5514099;26;20557;-74
2024/04/12 00:47:00;;;;;;;0.30;0.20;;;18.00;99.90;;;;;;5515837;26;20978;-75
2024/04/12 00:49:30;;;;;;;1.47;1.37;;;18.00;99.90;;;;;;5515661;26;20572;-75
2024/04/12 00:52:02;;;;;;;0.30;0.30;;;18.00;99.90;;;;;;5513814;26;20670;-74
2024/04/12 00:54:29;;;;;;;2.10;1.90;;;17.90;99.90;;;;;;5515832;26;20430;-75
2024/04/12 00:56:56;;;;;;;0.90;0.80;;;17.90;99.90;;;;;;5515577;25;20849;-75
2024/04/12 00:59:23;;;;;;;1.30;0.60;;;17.90;99.90;;;;;;5513701;26;20508;-74
2024/04/12 01:01:49;;;;;;;0.57;0.57;;;17.80;99.90;;;;;;5515550;25;20954;-74
2024/04/12 01:04:19;;;;;;;1.90;1.80;;;17.80;99.90;;;;;;5514464;26;20488;-75
2024/04/12 01:06:46;;;;;;;1.23;1.13;;;17.80;99.90;;;;;;5515129;26;20569;-74
2024/04/12 01:09:12;;;;;;;0.87;0.87;;;17.80;99.90;;;;;;5515571;25;20472;-74
2024/04/12 01:11:38;;;;;;;0.40;0.40;;;17.70;99.90;;;;;;5514767;25;20509;-75
2024/04/12 01:14:08;;;;;;;1.27;1.10;;;17.70;99.90;;;;;;5513334;26;20585;-75
2024/04/12 01:16:38;;;;;;;0.70;0.67;;;17.70;99.90;;;;;;5514831;25;20462;-74
2024/04/12 01:19:05;;;;;;;0.43;0.43;;;17.60;99.90;;;;;;5513227;26;20460;-74
2024/04/12 01:21:31;;;;;;;0.30;0.30;;;17.60;99.90;;;;;;5514552;25;20496;-75
2024/04/12 01:23:58;;;;;;;0.40;0.40;;;17.60;99.90;;;;;;5515534;26;20565;-74
2024/04/12 01:26:24;;;;;;;1.03;0.63;;;17.60;99.90;;;;;;5514523;25;20751;-75
2024/04/12 01:28:51;;;;;;;2.20;2.10;;;17.50;99.90;;;;;;5515424;26;20449;-75
2024/04/12 01:31:18;;;;;;;0.30;0.20;;;17.50;99.90;;;;;;5514485;26;20278;-74
2024/04/12 01:33:48;;;;;;;3.33;1.93;;;17.50;99.90;;;;;;5514846;25;20457;-75
2024/04/12 01:36:22;;;;;;;0.77;0.77;;;17.40;99.90;;;;;;5512780;26;20453;-74
2024/04/12 01:38:57;;;;;;;2.07;1.97;;;17.40;99.90;;;;;;5515451;26;20496;-74
2024/04/12 01:41:32;;;;;;;3.30;1.07;;;17.40;99.90;;;;;;5514918;25;20490;-74
2024/04/12 01:44:06;;;;;;;0.50;0.50;;;17.30;99.90;;;;;;5513497;26;20623;-75
2024/04/12 01:46:39;;;;;;;0.80;0.80;;;17.30;99.90;;;;;;5512918;26;20468;-74
2024/04/12 01:49:10;;;;;;;2.23;1.77;;;17.30;99.90;;;;;;5515072;25;20566;-74
2024/04/12 01:51:40;;;;;;;0.87;0.83;;;17.20;99.90;;;;;;5512924;26;20508;-75
2024/04/12 01:54:17;;;;;;;0.30;0.30;;;17.20;99.90;;;;;;5514904;26;20472;-75
2024/04/12 01:56:50;;;;;;;0.30;0.20;;;17.20;99.90;;;;;;5514674;25;20540;-74
2024/04/12 01:59:21;;;;;;;0.60;0.60;;;17.20;99.90;;;;;;5514922;26;20691;-75
2024/04/12 02:01:48;;;;;;;0.37;0.30;;;17.10;99.90;;;;;;5514202;25;20573;-74
2024/04/12 02:04:21;;;;;;;0.30;0.30;;;17.10;99.90;;;;;;5514986;25;20508;-75
2024/04/12 02:06:48;;;;;;;0.43;0.43;;;17.10;99.90;;;;;;5514030;25;20524;-74
2024/04/12 02:09:14;;;;;;;0.30;0.20;;;17.10;99.90;;;;;;5514702;25;20540;-75
2024/04/12 02:11:42;;;;;;;0.67;0.63;;;17.00;99.90;;;;;;5514034;25;20504;-75
2024/04/12 02:14:08;;;;;;;0.40;0.40;;;17.00;99.90;;;;;;5514339;25;20505;-75
2024/04/12 02:16:37;;;;;;;0.83;0.83;;;17.00;99.90;;;;;;5506291;26;20450;-75
2024/04/12 02:19:03;;;;;;;1.10;1.00;;;17.00;99.90;;;;;;5476139;26;20466;-74
2024/04/12 02:21:31;;;;;;;0.40;0.30;;;17.00;99.90;;;;;;5492183;26;20520;-74
2024/04/12 02:24:00;;;;;;;0.60;0.47;;;17.00;99.90;;;;;;5478061;26;20749;-75
2024/04/12 02:26:28;;;;;;;2.30;2.10;;;17.00;99.90;;;;;;5497707;26;20497;-74
2024/04/12 02:28:58;;;;;;;0.83;0.83;;;16.90;99.90;;;;;;5512710;26;20800;-75
2024/04/12 02:31:24;;;;;;;0.50;0.50;;;16.90;99.90;;;;;;5513806;25;20452;-74
2024/04/12 02:33:54;;;;;;;2.53;1.37;;;16.90;99.90;;;;;;5514226;25;20642;-75
2024/04/12 02:36:21;;;;;;;0.30;0.30;;;16.90;99.90;;;;;;5513382;25;20752;-74
2024/04/12 02:38:50;;;;;;;0.87;0.87;;;16.90;99.90;;;;;;5512414;26;20453;-75
2024/04/12 02:41:16;;;;;;;1.80;1.70;;;16.80;99.90;;;;;;5512222;26;20460;-75
2024/04/12 02:43:51;;;;;;;1.13;1.13;;;16.80;99.90;;;;;;5514081;25;20456;-75
2024/04/12 02:46:17;;;;;;;0.37;0.30;;;16.80;99.90;;;;;;5506182;26;21115;-75
2024/04/12 02:48:43;;;;;;;0.30;0.30;;;16.70;99.90;;;;;;5477229;26;20928;-75
2024/04/12 02:51:13;;;;;;;2.40;2.30;;;16.70;99.90;;;;;;5492766;26;20504;-75
2024/04/12 02:53:39;;;;;;;1.53;1.50;;;16.70;99.90;;;;;;5513852;25;20501;-74
2024/04/12 02:56:11;;;;;;;0.50;0.50;;;16.70;99.90;;;;;;5512247;26;20457;-75
2024/04/12 02:58:44;;;;;;;0.30;0.30;;;16.80;99.90;;;;;;5513766;25;21151;-75
2024/04/12 03:01:13;;;;;;;1.23;1.03;;;16.80;99.90;;;;;;5513372;25;20501;-74
2024/04/12 03:03:50;;;;;;;1.50;1.23;;;16.90;99.90;;;;;;5511678;26;20460;-74
2024/04/12 03:06:20;;;;;;;0.33;0.30;;;16.90;99.90;;;;;;5513490;25;20673;-75
2024/04/12 03:08:49;;;;;;;5.20;2.27;;;16.90;99.90;;;;;;5513427;25;20452;-75
2024/04/12 03:11:22;;;;;;;0.70;0.70;;;16.90;99.90;;;;;;5513377;25;20574;-75
2024/04/12 03:14:07;;;;;;;1.23;1.13;;;16.90;99.90;;;;;;5511872;26;21271;-74
2024/04/12 03:16:34;;;;;;;1.93;1.87;;;16.90;99.90;;;;;;5513672;25;20437;-75
2024/04/12 03:19:01;;;;;;;0.40;0.30;;;16.80;99.90;;;;;;5513707;25;20452;-75
2024/04/12 03:21:27;;;;;;;0.93;0.80;;;16.70;99.90;;;;;;5513144;26;20581;-74
2024/04/12 03:23:54;;;;;;;1.07;1.07;;;16.70;99.90;;;;;;5513137;25;20992;-76
2024/04/12 03:26:24;;;;;;;0.93;0.93;;;16.70;99.90;;;;;;5510846;26;20247;-75
2024/04/12 03:28:55;;;;;;;1.47;1.10;;;16.70;99.90;;;;;;5513388;25;20507;-75
2024/04/12 03:31:25;;;;;;;0.97;0.97;;;16.70;99.90;;;;;;5512788;26;21020;-75
2024/04/12 03:33:54;;;;;;;5.80;1.60;;;16.60;99.90;;;;;;5512869;26;20473;-75
2024/04/12 03:41:50;;;;;;;0.30;0.20;;;16.50;99.90;;;;;;5512679;25;21024;-75
2024/04/12 03:44:18;;;;;;;0.60;0.60;;;16.50;99.90;;;;;;5511177;26;20844;-75
2024/04/12 03:46:51;;;;;;;0.93;0.93;;;16.50;99.90;;;;;;5510860;26;20472;-75
2024/04/12 03:49:21;;;;;;;1.37;1.27;;;16.40;99.90;;;;;;5511368;26;21129;-75
2024/04/12 03:51:50;;;;;;;2.00;1.90;;;16.40;99.90;;;;;;5511368;25;20653;-75
2024/04/12 03:54:18;;;;;;;1.53;1.43;;;16.40;99.90;;;;;;5513006;25;20885;-75
2024/04/12 03:56:49;;;;;;;0.40;0.33;;;16.40;99.90;;;;;;5509729;25;20804;-75
2024/04/12 03:59:28;;;;;;;1.27;1.20;;;16.30;99.90;;;;;;5509966;25;20456;-75
2024/04/12 04:01:54;;;;;;;0.33;0.30;;;16.30;99.90;;;;;;5509373;25;21040;-75
2024/04/12 04:04:25;;;;;;;0.30;0.30;;;16.20;99.90;;;;;;5512676;25;20464;-75
2024/04/12 04:06:55;;;;;;;1.03;0.93;;;16.20;99.90;;;;;;5511861;26;20558;-75
2024/04/12 04:09:22;;;;;;;1.03;1.00;;;16.20;99.90;;;;;;5511103;25;20475;-75
2024/04/12 04:11:48;;;;;;;0.50;0.50;;;16.20;99.90;;;;;;5511908;25;20817;-75
2024/04/12 04:14:19;;;;;;;0.60;0.60;;;16.20;99.90;;;;;;5509777;26;20520;-75
2024/04/12 04:16:49;;;;;;;1.13;1.13;;;16.20;99.90;;;;;;5503214;26;20462;-75
2024/04/12 04:19:16;;;;;;;1.23;1.23;;;16.30;99.90;;;;;;5475123;26;20520;-75
2024/04/12 04:21:43;;;;;;;1.57;1.47;;;16.30;99.90;;;;;;5498079;26;20871;-75
2024/04/12 04:24:09;;;;;;;0.53;0.50;;;16.30;99.90;;;;;;5511404;26;20453;-75
2024/04/12 04:26:39;;;;;;;0.87;0.87;;;16.30;99.90;;;;;;5511582;25;20801;-75
2024/04/12 04:29:11;;;;;;;0.40;0.20;;;16.40;99.90;;;;;;5511664;25;20865;-76
2024/04/12 04:31:51;;;;;;;0.70;0.70;;;16.30;99.90;;;;;;5512179;25;20501;-75
2024/04/12 04:34:17;;;;;;;0.80;0.80;;;16.30;99.90;;;;;;5511375;25;20456;-76
2024/04/12 04:36:45;;;;;;;0.50;0.50;;;16.30;99.90;;;;;;5511518;25;20512;-76
2024/04/12 04:39:15;;;;;;;0.47;0.47;;;16.30;99.90;;;;;;5512372;26;20866;-76
2024/04/12 04:41:47;;;;;;;0.60;0.60;;;16.30;99.90;;;;;;5507400;26;20458;-75
2024/04/12 04:44:17;;;;;;;0.60;0.60;;;16.40;99.90;;;;;;5478705;26;20453;-76
2024/04/12 04:46:46;;;;;;;3.13;3.00;;;16.40;99.90;;;;;;5504612;26;20501;-76
2024/04/12 04:49:20;;;;;;;0.50;0.50;;;16.40;99.90;;;;;;5512887;26;20909;-76
2024/04/12 04:51:50;;;;;;;1.33;1.33;;;16.50;99.90;;;;;;5509864;26;20512;-76
2024/04/12 04:54:21;;;;;;;0.40;0.40;;;16.50;99.90;;;;;;5511728;26;20456;-75
2024/04/12 04:56:48;;;;;;;0.63;0.60;;;16.50;99.90;;;;;;5511895;25;20504;-75
2024/04/12 04:59:16;;;;;;;0.30;0.20;;;16.60;99.90;;;;;;5512217;26;20582;-75
2024/04/12 05:01:48;;;;;;;0.37;0.37;;;16.70;99.90;;;;;;5511602;26;20452;-75
2024/04/12 05:04:20;;;;;;;0.50;0.50;;;16.70;99.90;;;;;;5513474;26;20457;-75
2024/04/12 05:06:47;;;;;;;1.27;1.27;;;16.70;99.90;;;;;;5512229;25;20721;-75
2024/04/12 05:09:18;;;;;;;0.40;0.30;;;16.80;99.90;;;;;;5501281;26;20456;-75
2024/04/12 05:11:49;;;;;;;2.10;2.00;;;16.80;99.90;;;;;;5512099;26;20518;-75
2024/04/12 05:17:05;;;;;;;0.30;0.30;;;16.90;99.90;;;;;;5511756;25;20445;-75
2024/04/12 05:19:40;;;;;;;0.53;0.50;;;17.00;99.90;;;;;;5501350;26;20489;-75
2024/04/12 05:22:19;;;;;;;0.30;0.30;;;17.10;99.90;;;;;;5493211;26;20453;-75
2024/04/12 05:24:46;;;;;;;0.60;0.60;;;17.10;99.90;;;;;;5482287;26;20445;-75
2024/04/12 05:27:12;;;;;;;0.40;0.40;;;17.20;99.90;;;;;;5498892;26;20458;-75
2024/04/12 05:29:40;;;;;;;6.43;1.67;;;17.30;99.90;;;;;;5489972;26;20505;-75
2024/04/12 05:32:06;;;;;;;16.00;11.67;;;17.30;99.90;;;;;;5495939;26;20472;-75
2024/04/12 05:34:34;;;;;;;1.37;1.37;;;17.40;99.90;;;;;;5490760;25;20494;-75
2024/04/12 05:37:03;;;;;;;0.30;0.20;;;17.40;99.90;;;;;;5492265;25;20442;-75
2024/04/12 05:39:33;;;;;;;1.73;1.63;;;17.50;99.90;;;;;;5490989;25;21198;-75
2024/04/12 05:42:05;;;;;;;0.40;0.40;;;17.60;99.90;;;;;;5492378;26;20575;-75
2024/04/12 05:44:34;;;;;;;0.70;0.70;;;17.60;99.90;;;;;;5497179;26;20517;-75
2024/04/12 05:47:09;;;;;;;0.30;0.20;;;17.70;99.90;;;;;;5492277;25;20511;-75
2024/04/12 05:49:36;;;;;;;0.30;0.27;;;17.70;99.90;;;;;;5497421;25;20519;-75
2024/04/12 05:52:03;;;;;;;0.97;0.40;;;17.80;99.90;;;;;;5505696;25;20461;-75
2024/04/12 05:54:39;;;;;;;0.30;0.30;;;17.80;99.90;;;;;;5505343;26;20457;-75
2024/04/12 05:57:06;;;;;;;1.13;1.03;;;17.90;99.90;;;;;;5512956;25;20463;-75
2024/04/12 05:59:32;;;;;;;0.40;0.40;;;17.90;99.90;;;;;;5508859;25;20758;-75
2024/04/12 06:02:01;;;;;;;0.60;0.60;;;18.00;99.90;;;;;;5484696;25;20466;-74
2024/04/12 06:04:27;;;;;;;4.57;0.90;;;18.10;99.90;;;;;;5494825;26;20513;-75
2024/04/12 06:06:54;;;;;;;0.30;0.20;;;18.10;99.90;;;;;;5487367;26;20498;-75
2024/04/12 06:09:20;;;;;;;0.63;0.63;;;18.20;99.90;;;;;;5482879;26;20474;-75
2024/04/12 06:11:57;;;;;;;1.43;1.43;;;18.20;99.90;;;;;;5489378;26;20566;-75
2024/04/12 06:14:24;;;;;;;9.00;1.53;;;18.30;99.90;;;;;;5479970;26;21127;-75
2024/04/12 06:16:57;;;;;;;0.30;0.20;;;18.40;99.90;;;;;;5486486;26;20811;-75
2024/04/12 06:19:26;;;;;;;0.70;0.67;;;18.50;99.90;;;;;;5486663;26;20469;-75
2024/04/12 06:21:52;;;;;;;0.50;0.50;;;18.50;99.90;;;;;;5502528;26;20510;-75
2024/04/12 06:24:29;;;;;;;1.23;1.03;;;18.60;99.90;;;;;;5479948;26;20456;-75
2024/04/12 06:26:56;;;;;;;1.70;0.80;;;18.70;99.90;;;;;;5495763;26;20238;-76
2024/04/12 06:29:22;;;;;;;19.97;11.13;;;18.80;99.90;;;;;;5483814;26;20471;-75
2024/04/12 06:31:50;;;;;;;14.07;5.30;;;18.80;99.90;;;;;;5489221;26;20537;-75
2024/04/12 06:34:18;;;;;;;0.30;0.20;;;18.90;99.90;;;;;;5471315;26;20884;-75
2024/04/12 06:36:47;;;;;;;0.40;0.30;;;19.00;99.90;;;;;;5499347;26;20530;-75
2024/04/12 06:39:14;;;;;;;0.30;0.20;;;19.00;99.90;;;;;;5509303;25;20515;-75
2024/04/12 06:41:40;;;;;;;0.30;0.20;;;19.10;99.90;;;;;;5511274;26;20452;-75
2024/04/12 06:44:15;;;;;;;0.53;0.53;;;19.10;99.90;;;;;;5511128;25;20454;-75
2024/04/12 06:46:44;;;;;;;0.40;0.40;;;19.20;99.90;;;;;;5510837;26;21333;-75
2024/04/12 06:49:14;;;;;;;0.30;0.30;;;19.30;99.90;;;;;;5507176;26;20512;-75
2024/04/12 06:52:23;;;;;;;0.87;0.87;;;19.30;99.90;;;;;;5490521;25;20708;-75
2024/04/12 06:54:36;;;;;;;0.30;0.20;;;19.40;99.90;;;;;;5497935;25;20757;-75
2024/04/12 06:57:03;;;;;;;3.03;1.80;;;19.40;99.90;;;;;;5480029;25;20516;-75
2024/04/12 06:59:35;;;;;;;0.33;0.30;;;19.50;99.90;;;;;;5504964;26;20527;-75
2024/04/12 07:02:13;;;;;;;6.80;1.13;;;19.50;99.90;;;;;;5503308;25;20472;-75
2024/04/12 07:04:40;;;;;;;0.30;0.30;;;19.60;99.90;;;;;;5486031;26;20814;-75
2024/04/12 07:07:06;;;;;;;0.30;0.20;;;19.60;99.90;;;;;;5482130;26;20849;-74
2024/04/12 07:09:32;;;;;;;0.30;0.20;;;19.70;99.90;;;;;;5476582;26;20507;-75
2024/04/12 07:12:05;;;;;;;0.40;0.40;;;19.80;99.90;;;;;;5495748;26;20463;-75
2024/04/12 07:14:33;;;;;;;0.40;0.40;;;19.80;99.90;;;;;;5470864;25;20473;-75
2024/04/12 07:16:59;;;;;;;2.30;0.70;;;19.80;99.90;;;;;;5497822;26;21251;-75
2024/04/12 07:19:26;;;;;;;0.40;0.40;;;19.90;99.90;;;;;;5495238;25;20565;-75
2024/04/12 07:21:54;;;;;;;0.30;0.20;;;19.90;99.90;;;;;;5477706;26;20247;-75
2024/04/12 07:24:25;;;;;;;0.30;0.30;;;20.00;99.90;;;;;;5491784;26;20561;-75
2024/04/12 07:26:54;;;;;;;0.30;0.20;;;20.10;99.90;;;;;;5482244;25;21001;-75
2024/04/12 07:29:23;;;;;;;0.40;0.40;;;20.30;99.90;;;;;;5472121;26;20517;-75
2024/04/12 07:31:53;;;;;;;0.30;0.20;;;20.30;99.90;;;;;;5475295;26;20904;-75
2024/04/12 07:34:19;;;;;;;0.30;0.20;;;20.40;99.90;;;;;;5495909;26;20448;-76
2024/04/12 07:36:44;;;;;;;0.30;0.30;;;20.40;99.90;;;;;;5504848;25;20504;-75
2024/04/12 07:39:15;;;;;;;0.30;0.20;;;20.50;99.90;;;;;;5470697;26;20518;-75
2024/04/12 07:41:45;;;;;;;0.30;0.20;;;20.60;99.70;;;;;;5482213;26;20232;-75
2024/04/12 07:44:12;;;;;;;0.40;0.40;;;20.70;99.60;;;;;;5482677;25;20518;-75
2024/04/12 07:46:45;;;;;;;2.60;1.23;;;20.70;99.70;;;;;;5493922;26;20512;-76
2024/04/12 07:49:13;;;;;;;0.40;0.30;;;20.80;99.30;;;;;;5475989;26;20461;-75
2024/04/12 07:51:39;;;;;;;0.40;0.30;;;20.80;99.50;;;;;;5481276;26;20446;-76
2024/04/12 07:54:11;;;;;;;0.30;0.20;;;20.90;99.30;;;;;;5491245;26;20792;-76
2024/04/12 07:56:43;;;;;;;0.30;0.20;;;21.00;98.90;;;;;;5485336;26;20289;-75
2024/04/12 07:59:25;;;;;;;0.30;0.23;;;21.10;99.00;;;;;;5490203;26;20600;-75
2024/04/12 08:01:57;;;;;;;0.30;0.30;;;21.10;98.80;;;;;;5500681;26;20452;-75
2024/04/12 08:04:23;;;;;;;0.30;0.20;;;21.20;98.80;;;;;;5481114;26;20894;-76
2024/04/12 08:06:58;;;;;;;0.30;0.20;;;21.20;98.70;;;;;;5478013;25;20446;-75
2024/04/12 08:09:34;;;;;;;0.30;0.30;;;21.10;98.80;;;;;;5498071;26;20852;-75
2024/04/12 08:12:17;;;;;;;1.43;1.33;;;21.20;98.90;;;;;;5502584;26;20444;-75
2024/04/12 08:14:54;;;;;;;0.97;0.50;;;21.40;98.40;;;;;;5511357;26;20460;-75
2024/04/12 08:17:25;;;;;;;0.30;0.20;;;21.50;98.20;;;;;;5504415;26;20458;-75
2024/04/12 08:19:55;;;;;;;0.30;0.20;;;21.40;98.00;;;;;;5486510;25;20453;-75
2024/04/12 08:22:27;;;;;;;0.40;0.37;;;21.50;98.00;;;;;;5490753;26;20523;-75
2024/04/12 08:24:54;;;;;;;0.30;0.20;;;21.60;97.80;;;;;;5488436;26;20453;-75
2024/04/12 08:27:24;;;;;;;0.30;0.20;;;21.70;97.70;;;;;;5505427;26;20521;-75
2024/04/12 08:29:55;;;;;;;0.43;0.43;;;21.80;97.60;;;;;;5487859;26;20516;-75
2024/04/12 08:32:33;;;;;;;0.30;0.30;;;21.70;97.60;;;;;;5492087;26;20512;-77
2024/04/12 08:35:06;;;;;;;0.50;0.50;;;21.70;97.50;;;;;;5485178;26;20445;-76
2024/04/12 08:37:36;;;;;;;0.70;0.60;;;21.70;97.80;;;;;;5481996;26;21012;-76
2024/04/12 08:40:08;;;;;;;0.30;0.20;;;21.90;97.50;;;;;;5484355;26;20510;-77
2024/04/12 08:42:34;;;;;;;0.30;0.20;;;22.10;97.10;;;;;;5487374;26;20580;-77
2024/04/12 08:45:13;;;;;;;0.40;0.40;;;22.00;97.10;;;;;;5478620;26;20463;-76
2024/04/12 08:47:54;;;;;;;0.30;0.20;;;22.30;96.90;;;;;;5483434;26;20888;-77
2024/04/12 08:50:24;;;;;;;0.90;0.83;;;22.80;96.60;;;;;;5478304;26;20756;-77
2024/04/12 08:52:53;;;;;;;0.87;0.43;;;23.40;95.70;;;;;;5486585;26;20459;-76
2024/04/12 08:55:20;;;;;;;0.30;0.20;;;24.00;95.40;;;;;;5486048;26;20467;-76
2024/04/12 08:57:47;;;;;;;0.30;0.20;;;24.70;94.10;;;;;;5493249;25;20576;-76
2024/04/12 09:00:21;;;;;;;1.83;0.53;;;24.90;93.60;;;;;;5474084;26;20457;-76
2024/04/12 09:02:58;;;;;;;0.57;0.57;;;25.00;93.30;;;;;;5471474;26;20457;-76
2024/04/12 09:05:25;;;;;;;2.10;1.70;;;24.60;93.50;;;;;;5475766;26;20464;-76
2024/04/12 09:08:00;;;;;;;2.10;0.97;;;24.60;93.70;;;;;;5505915;26;20524;-76
2024/04/12 09:10:27;;;;;;;0.30;0.30;;;24.70;93.20;;;;;;5501273;26;20861;-75
2024/04/12 09:12:54;;;;;;;0.40;0.33;;;24.50;93.20;;;;;;5500206;26;20817;-75
2024/04/12 09:15:27;;;;;;;0.40;0.30;;;24.50;93.30;;;;;;5485523;25;20859;-76
2024/04/12 09:18:08;;;;;;;0.30;0.23;;;24.60;93.30;;;;;;5491860;26;21139;-76
2024/04/12 09:20:35;;;;;;;0.67;0.67;;;24.60;93.40;;;;;;5481902;26;20524;-76
2024/04/12 09:23:14;;;;;;;0.60;0.60;;;24.60;93.20;;;;;;5491779;25;20454;-76
2024/04/12 09:25:45;;;;;;;0.93;0.93;;;24.70;93.00;;;;;;5476087;26;20583;-76
2024/04/12 09:28:16;;;;;;;0.50;0.50;;;24.70;92.70;;;;;;5470739;26;20461;-76
2024/04/12 09:33:31;;;;;;;1.47;1.17;;;24.70;92.90;;;;;;5507447;26;20553;-75
2024/04/12 09:36:15;;;;;;;0.40;0.20;;;24.70;92.90;;;;;;5507097;26;20957;-75
2024/04/12 09:38:41;;;;;;;0.30;0.20;;;24.70;92.80;;;;;;5491391;26;20520;-75
2024/04/12 09:41:29;;;;;;;0.80;0.80;;;24.70;92.50;;;;;;5501396;26;20452;-75
2024/04/12 09:43:59;;;;;;;0.30;0.20;;;24.80;92.40;;;;;;5483326;26;20529;-75
2024/04/12 09:46:46;;;;;;;0.40;0.40;;;24.80;92.60;;;;;;5497542;26;20538;-76
2024/04/12 10:39:49;;;;;;;0.40;0.37;;;23.80;92.90;;;;;;5484022;26;20513;-76
2024/04/12 10:42:19;;;;;;;0.40;0.30;;;24.00;92.90;;;;;;5502194;25;20481;-78
2024/04/12 10:44:51;;;;;;;0.30;0.20;;;23.90;92.80;;;;;;5494637;26;20459;-76
2024/04/12 10:47:20;;;;;;;0.30;0.30;;;23.70;93.00;;;;;;5494457;26;20456;-78
2024/04/12 10:49:46;;;;;;;0.30;0.20;;;23.50;93.30;;;;;;5473227;26;20456;-78
2024/04/12 10:52:14;;;;;;;0.30;0.27;;;23.70;93.40;;;;;;5489850;26;20473;-78
2024/04/12 10:54:43;;;;;;;1.27;1.23;;;24.00;93.20;;;;;;5482210;26;20468;-76
2024/04/12 10:57:10;;;;;;;0.63;0.60;;;24.20;92.90;;;;;;5482924;26;20455;-75
2024/04/12 10:59:42;;;;;;;1.90;1.27;;;24.40;92.90;;;;;;5486910;25;20513;-79
2024/04/12 11:02:10;;;;;;;0.40;0.40;;;24.50;92.70;;;;;;5486823;26;20523;-78
2024/04/12 11:05:05;;;;;;;0.30;0.30;;;24.50;92.80;;;;;;5474595;26;20561;-77
2024/04/12 11:07:22;;;;;;;0.97;0.97;;;24.50;92.60;;;;;;5477267;26;20526;-78
2024/04/12 11:09:57;;;;;;;0.30;0.30;;;24.30;92.70;;;;;;5484537;26;21040;-75
2024/04/12 11:12:29;;;;;;;0.40;0.40;;;24.50;92.60;;;;;;5488237;26;20235;-77
2024/04/12 11:31:39;;;;;;;0.70;0.70;;;25.00;92.00;;;;;;5470328;26;20508;-75
2024/04/12 11:34:06;;;;;;;0.30;0.20;;;25.10;91.90;;;;;;5480302;26;20566;-76
2024/04/12 11:36:39;;;;;;;0.50;0.50;;;25.10;91.60;;;;;;5475424;26;20521;-75
2024/04/12 11:39:17;;;;;;;1.23;1.17;;;25.10;91.80;;;;;;5480511;26;20454;-77
2024/04/12 11:41:46;;;;;;;1.10;0.87;;;25.20;91.90;;;;;;5497768;26;20485;-75
2024/04/12 11:44:17;;;;;;;0.40;0.37;;;25.10;91.90;;;;;;5491252;26;21018;-75
2024/04/12 11:46:48;;;;;;;2.00;1.33;;;25.10;91.90;;;;;;5483637;26;20736;-76
2024/04/12 11:49:16;;;;;;;0.43;0.30;;;25.20;91.90;;;;;;5481760;26;20454;-75
2024/04/12 11:51:42;;;;;;;0.50;0.50;;;25.20;91.80;;;;;;5481910;26;20442;-76
2024/04/12 11:54:13;;;;;;;0.80;0.80;;;25.30;91.70;;;;;;5491681;26;21135;-76
2024/04/12 11:56:39;;;;;;;0.30;0.30;;;25.30;91.60;;;;;;5482524;26;20223;-76
2024/04/12 11:59:09;;;;;;;1.37;1.37;;;25.40;91.70;;;;;;5481280;26;20512;-76
2024/04/12 12:01:37;;;;;;;0.40;0.40;;;25.40;91.60;;;;;;5483714;26;20974;-77
2024/04/12 12:04:08;;;;;;;1.27;1.20;;;25.40;91.30;;;;;;5478976;26;20461;-75
2024/04/12 12:06:33;;;;;;;1.03;0.93;;;25.40;91.30;;;;;;5478004;26;20917;-76
2024/04/12 12:09:11;;;;;;;1.53;0.97;;;25.40;91.40;;;;;;5495921;26;20570;-75
2024/04/12 12:11:37;;;;;;;0.30;0.30;;;25.50;91.20;;;;;;5468037;26;20321;-75
2024/04/12 12:14:05;;;;;;;0.50;0.50;;;25.40;91.30;;;;;;5469574;26;20584;-75
2024/04/12 12:16:33;;;;;;;0.30;0.20;;;25.40;91.40;;;;;;5480239;26;20562;-75
2024/04/12 12:18:59;;;;;;;0.30;0.30;;;25.40;91.40;;;;;;5468349;26;20458;-76
2024/04/12 12:21:25;;;;;;;1.30;1.20;;;25.50;91.40;;;;;;5473415;26;20874;-76
2024/04/12 12:23:50;;;;;;;0.40;0.40;;;25.40;91.30;;;;;;5482939;26;20694;-77
2024/04/12 12:26:16;;;;;;;1.00;0.93;;;25.40;91.20;;;;;;5475352;26;21041;-75
2024/04/12 12:28:42;;;;;;;0.40;0.30;;;25.50;91.20;;;;;;5484961;25;20284;-76
2024/04/12 12:31:08;;;;;;;1.70;0.93;;;25.50;91.30;;;;;;5489794;25;20648;-75
2024/04/12 12:33:38;;;;;;;0.53;0.53;;;25.60;91.30;;;;;;5493241;25;20551;-75
2024/04/12 12:36:05;;;;;;;0.30;0.20;;;25.70;91.00;;;;;;5491895;25;20478;-75
2024/04/12 12:38:33;;;;;;;1.30;1.20;;;25.70;91.00;;;;;;5490967;26;20688;-76
2024/04/12 12:40:59;;;;;;;0.83;0.83;;;25.70;91.10;;;;;;5498492;26;20502;-75
2024/04/12 12:43:28;;;;;;;1.90;1.80;;;25.80;90.90;;;;;;5484912;26;21073;-76
2024/04/12 12:45:57;;;;;;;0.30;0.20;;;25.70;90.80;;;;;;5496103;25;20227;-75
2024/04/12 12:48:27;;;;;;;0.60;0.60;;;25.70;90.70;;;;;;5473726;26;20454;-77
2024/04/12 12:50:54;;;;;;;0.30;0.30;;;25.80;90.80;;;;;;5490268;26;20524;-77
2024/04/12 12:53:22;;;;;;;2.60;0.57;;;25.90;90.50;;;;;;5470506;26;20549;-77
2024/04/12 12:55:51;;;;;;;0.30;0.30;;;25.90;90.20;;;;;;5506248;26;21189;-76
2024/04/12 12:58:24;;;;;;;0.43;0.43;;;25.90;90.10;;;;;;5494289;26;20465;-76
2024/04/12 13:00:51;;;;;;;0.30;0.20;;;25.90;90.30;;;;;;5476433;26;20508;-76
2024/04/12 13:03:17;;;;;;;0.50;0.40;;;25.80;90.30;;;;;;5500133;25;21060;-75
2024/04/12 13:05:48;;;;;;;3.20;0.73;;;25.80;90.10;;;;;;5499112;25;20449;-76
2024/04/12 13:08:16;;;;;;;0.40;0.40;;;25.80;90.30;;;;;;5496866;26;20877;-77
2024/04/12 13:10:48;;;;;;;0.50;0.30;;;25.70;90.30;;;;;;5478994;26;20556;-77
2024/04/12 13:13:21;;;;;;;1.60;0.40;;;25.50;90.50;;;;;;5474278;26;20515;-76
2024/04/12 13:15:54;;;;;;;0.40;0.20;;;25.50;90.60;;;;;;5493228;25;20516;-75
2024/04/12 13:18:23;;;;;;;0.80;0.60;;;25.50;90.60;;;;;;5475702;25;20754;-75
2024/04/12 13:20:53;;;;;;;0.90;0.90;;;25.30;90.60;;;;;;5505808;26;20440;-75
2024/04/12 13:23:19;;;;;;;0.30;0.20;;;25.30;90.70;;;;;;5471574;26;20521;-76
2024/04/12 13:25:45;;;;;;;0.30;0.20;;;25.30;90.70;;;;;;5479482;26;20449;-76
2024/04/12 13:28:13;;;;;;;0.30;0.20;;;25.10;90.80;;;;;;5473051;26;20233;-75
2024/04/12 13:30:42;;;;;;;0.40;0.40;;;25.10;90.90;;;;;;5484248;26;20454;-76
2024/04/12 13:33:08;;;;;;;0.70;0.67;;;25.30;90.80;;;;;;5493620;26;20573;-75
2024/04/12 13:35:41;;;;;;;0.30;0.20;;;25.40;90.70;;;;;;5492248;26;20498;-76
2024/04/12 13:38:12;;;;;;;0.57;0.57;;;25.50;90.60;;;;;;5473753;26;20462;-77
2024/04/12 13:40:42;;;;;;;0.30;0.30;;;25.60;90.40;;;;;;5478086;26;20487;-76
2024/04/12 13:43:17;;;;;;;1.03;0.97;;;25.70;90.50;;;;;;5501084;26;20514;-75
2024/04/12 13:51:15;;;;;;;0.67;0.67;;;25.80;89.40;;;;;;5475973;26;20492;-77
2024/04/12 13:53:43;;;;;;;1.77;1.67;;;25.80;89.80;;;;;;5496200;26;20472;-76
2024/04/12 13:56:25;;;;;;;0.83;0.83;;;25.80;90.00;;;;;;5508811;25;20457;-77
2024/04/12 13:59:10;;;;;;;0.90;0.70;;;25.70;90.00;;;;;;5484837;25;20509;-75
2024/04/12 14:01:40;;;;;;;1.30;1.30;;;25.70;90.00;;;;;;5480794;26;20458;-77
2024/04/12 14:04:09;;;;;;;1.13;1.03;;;25.80;90.10;;;;;;5485029;26;20809;-75
2024/04/12 14:06:36;;;;;;;0.37;0.37;;;25.90;89.80;;;;;;5477675;26;20473;-75
2024/04/12 14:09:12;;;;;;;0.40;0.40;;;25.90;89.90;;;;;;5485523;26;20529;-76
2024/04/12 14:11:38;;;;;;;3.03;2.37;;;26.10;90.00;;;;;;5484808;26;21164;-76
2024/04/12 14:14:04;;;;;;;13.50;2.07;;;26.00;89.80;;;;;;5503741;26;21025;-75
2024/04/12 14:16:41;;;;;;;0.40;0.30;;;26.10;90.00;;;;;;5502712;25;20492;-75
2024/04/12 14:19:17;;;;;;;0.50;0.50;;;26.00;89.70;;;;;;5504627;26;20235;-75
2024/04/12 14:21:45;;;;;;;0.67;0.67;;;26.00;89.20;;;;;;5504703;25;20449;-75
2024/04/12 14:24:56;;;;;;;0.80;0.80;;;26.10;89.60;;;;;;5495680;26;20829;-75